sensor_id;sensor_type;location;lat;lon;timestamp;temperature;humidity
19610;DHT22;9952;47.122;-1.638;2023-04-03T00:02:54;8.70;99.90
19610;DHT22;9952;47.122;-1.638;2023-04-03T00:07:35;8.70;99.90
19610;DHT22;9952;47.122;-1.638;2023-04-03T00:12:16;8.50;99.90
19610;DHT22;9952;47.122;-1.638;2023-04-03T00:16:57;8.40;99.90
19610;DHT22;9952;47.122;-1.638;2023-04-03T00:21:38;8.20;99.90
19610;DHT22;9952;47.122;-1.638;2023-04-03T00:26:19;8.10;99.90
19610;DHT22;9952;47.122;-1.638;2023-04-03T00:31:00;8.00;99.90
19610;DHT22;9952;47.122;-1.638;2023-04-03T00:35:41;8.00;99.90
19610;DHT22;9952;47.122;-1.638;2023-04-03T00:40:24;7.90;99.90
19610;DHT22;9952;47.122;-1.638;2023-04-03T00:49:46;7.70;99.90
19610;DHT22;9952;47.122;-1.638;2023-04-03T00:54:27;7.70;99.90
19610;DHT22;9952;47.122;-1.638;2023-04-03T00:59:16;7.60;99.90
19610;DHT22;9952;47.122;-1.638;2023-04-03T01:04:03;7.70;99.90
19610;DHT22;9952;47.122;-1.638;2023-04-03T01:08:44;7.60;99.90
19610;DHT22;9952;47.122;-1.638;2023-04-03T01:13:30;7.30;99.90
19610;DHT22;9952;47.122;-1.638;2023-04-03T01:18:11;7.30;99.90
19610;DHT22;9952;47.122;-1.638;2023-04-03T01:27:53;7.20;99.90
19610;DHT22;9952;47.122;-1.638;2023-04-03T01:32:34;7.20;99.90
19610;DHT22;9952;47.122;-1.638;2023-04-03T01:37:15;7.30;99.90
19610;DHT22;9952;47.122;-1.638;2023-04-03T01:41:56;7.20;99.90
19610;DHT22;9952;47.122;-1.638;2023-04-03T01:46:37;7.10;99.90
19610;DHT22;9952;47.122;-1.638;2023-04-03T01:51:18;7.10;99.90
19610;DHT22;9952;47.122;-1.638;2023-04-03T01:55:58;7.00;99.90
19610;DHT22;9952;47.122;-1.638;2023-04-03T02:00:39;6.90;99.90
19610;DHT22;9952;47.122;-1.638;2023-04-03T02:05:20;6.80;99.90
19610;DHT22;9952;47.122;-1.638;2023-04-03T02:10:01;6.80;99.90
19610;DHT22;9952;47.122;-1.638;2023-04-03T02:14:42;6.80;99.90
19610;DHT22;9952;47.122;-1.638;2023-04-03T02:19:23;6.70;99.90
19610;DHT22;9952;47.122;-1.638;2023-04-03T02:24:03;6.60;99.90
19610;DHT22;9952;47.122;-1.638;2023-04-03T02:28:44;6.60;99.90
19610;DHT22;9952;47.122;-1.638;2023-04-03T02:33:25;6.50;99.90
19610;DHT22;9952;47.122;-1.638;2023-04-03T02:38:06;6.40;99.90
19610;DHT22;9952;47.122;-1.638;2023-04-03T02:42:47;6.40;99.90
19610;DHT22;9952;47.122;-1.638;2023-04-03T02:47:28;6.20;99.90
19610;DHT22;9952;47.122;-1.638;2023-04-03T02:52:09;6.10;99.90
19610;DHT22;9952;47.122;-1.638;2023-04-03T02:56:51;6.10;99.90
19610;DHT22;9952;47.122;-1.638;2023-04-03T03:01:32;6.00;99.90
19610;DHT22;9952;47.122;-1.638;2023-04-03T03:06:16;5.90;99.90
19610;DHT22;9952;47.122;-1.638;2023-04-03T03:10:57;5.90;99.90
19610;DHT22;9952;47.122;-1.638;2023-04-03T03:15:38;5.90;99.90
19610;DHT22;9952;47.122;-1.638;2023-04-03T03:20:18;5.80;99.90
19610;DHT22;9952;47.122;-1.638;2023-04-03T03:24:59;5.60;99.90
19610;DHT22;9952;47.122;-1.638;2023-04-03T03:29:41;5.60;99.90
19610;DHT22;9952;47.122;-1.638;2023-04-03T03:34:22;5.50;99.90
19610;DHT22;9952;47.122;-1.638;2023-04-03T03:39:03;5.50;99.90
19610;DHT22;9952;47.122;-1.638;2023-04-03T03:43:43;5.50;99.90
19610;DHT22;9952;47.122;-1.638;2023-04-03T03:48:24;5.40;99.90
19610;DHT22;9952;47.122;-1.638;2023-04-03T03:53:05;5.40;99.90
19610;DHT22;9952;47.122;-1.638;2023-04-03T03:57:46;5.40;99.90
19610;DHT22;9952;47.122;-1.638;2023-04-03T04:02:27;5.20;99.90
19610;DHT22;9952;47.122;-1.638;2023-04-03T04:07:08;5.20;99.90
19610;DHT22;9952;47.122;-1.638;2023-04-03T04:11:48;5.10;99.90
19610;DHT22;9952;47.122;-1.638;2023-04-03T04:16:29;5.00;99.90
19610;DHT22;9952;47.122;-1.638;2023-04-03T04:21:10;4.80;99.90
19610;DHT22;9952;47.122;-1.638;2023-04-03T04:25:51;4.70;99.90
19610;DHT22;9952;47.122;-1.638;2023-04-03T04:30:31;4.60;99.90
19610;DHT22;9952;47.122;-1.638;2023-04-03T04:35:12;4.60;99.90
19610;DHT22;9952;47.122;-1.638;2023-04-03T04:39:53;4.60;99.90
19610;DHT22;9952;47.122;-1.638;2023-04-03T04:44:34;4.50;99.90
19610;DHT22;9952;47.122;-1.638;2023-04-03T04:49:14;4.50;99.90
19610;DHT22;9952;47.122;-1.638;2023-04-03T04:53:55;4.50;99.90
19610;DHT22;9952;47.122;-1.638;2023-04-03T04:58:36;4.40;99.90
19610;DHT22;9952;47.122;-1.638;2023-04-03T05:03:17;4.40;99.90
19610;DHT22;9952;47.122;-1.638;2023-04-03T05:07:58;4.50;99.90
19610;DHT22;9952;47.122;-1.638;2023-04-03T05:12:38;4.40;99.90
19610;DHT22;9952;47.122;-1.638;2023-04-03T05:17:20;4.40;99.90
19610;DHT22;9952;47.122;-1.638;2023-04-03T05:22:00;4.30;99.90
19610;DHT22;9952;47.122;-1.638;2023-04-03T05:26:42;4.30;99.90
19610;DHT22;9952;47.122;-1.638;2023-04-03T05:31:23;4.30;99.90
19610;DHT22;9952;47.122;-1.638;2023-04-03T05:36:05;4.30;99.90
19610;DHT22;9952;47.122;-1.638;2023-04-03T05:40:46;4.20;99.90
19610;DHT22;9952;47.122;-1.638;2023-04-03T05:45:27;4.20;99.90
19610;DHT22;9952;47.122;-1.638;2023-04-03T05:50:08;4.20;99.90
19610;DHT22;9952;47.122;-1.638;2023-04-03T05:54:48;4.20;99.90
19610;DHT22;9952;47.122;-1.638;2023-04-03T05:59:29;4.30;99.90
19610;DHT22;9952;47.122;-1.638;2023-04-03T06:04:10;4.20;99.90
19610;DHT22;9952;47.122;-1.638;2023-04-03T06:08:52;4.20;99.90
19610;DHT22;9952;47.122;-1.638;2023-04-03T06:13:33;4.20;99.90
19610;DHT22;9952;47.122;-1.638;2023-04-03T06:18:15;4.20;99.90
19610;DHT22;9952;47.122;-1.638;2023-04-03T06:22:56;4.20;99.90
19610;DHT22;9952;47.122;-1.638;2023-04-03T06:27:37;4.20;99.90
19610;DHT22;9952;47.122;-1.638;2023-04-03T06:32:18;4.30;99.90
19610;DHT22;9952;47.122;-1.638;2023-04-03T06:36:59;4.60;99.90
19610;DHT22;9952;47.122;-1.638;2023-04-03T06:41:40;5.30;99.90
19610;DHT22;9952;47.122;-1.638;2023-04-03T06:46:21;6.00;99.90
19610;DHT22;9952;47.122;-1.638;2023-04-03T06:51:02;6.90;99.90
19610;DHT22;9952;47.122;-1.638;2023-04-03T06:55:43;7.40;99.90
19610;DHT22;9952;47.122;-1.638;2023-04-03T07:00:24;7.60;99.90
19610;DHT22;9952;47.122;-1.638;2023-04-03T07:05:05;7.70;99.90
19610;DHT22;9952;47.122;-1.638;2023-04-03T07:09:46;8.00;99.90
19610;DHT22;9952;47.122;-1.638;2023-04-03T07:14:28;8.30;99.90
19610;DHT22;9952;47.122;-1.638;2023-04-03T07:19:09;8.90;99.90
19610;DHT22;9952;47.122;-1.638;2023-04-03T07:23:50;9.40;99.90
19610;DHT22;9952;47.122;-1.638;2023-04-03T07:28:32;9.90;99.90
19610;DHT22;9952;47.122;-1.638;2023-04-03T07:33:15;10.20;99.90
19610;DHT22;9952;47.122;-1.638;2023-04-03T07:37:55;10.40;99.90
19610;DHT22;9952;47.122;-1.638;2023-04-03T07:42:36;10.50;99.90
19610;DHT22;9952;47.122;-1.638;2023-04-03T07:47:17;10.20;99.90
19610;DHT22;9952;47.122;-1.638;2023-04-03T07:51:58;9.60;99.90
19610;DHT22;9952;47.122;-1.638;2023-04-03T07:56:39;9.30;99.90
19610;DHT22;9952;47.122;-1.638;2023-04-03T08:01:20;9.50;99.90
19610;DHT22;9952;47.122;-1.638;2023-04-03T08:06:06;9.80;99.90
19610;DHT22;9952;47.122;-1.638;2023-04-03T08:10:51;9.90;99.90
19610;DHT22;9952;47.122;-1.638;2023-04-03T08:15:32;9.70;99.90
19610;DHT22;9952;47.122;-1.638;2023-04-03T08:20:13;9.40;99.90
19610;DHT22;9952;47.122;-1.638;2023-04-03T08:24:54;9.10;99.90
19610;DHT22;9952;47.122;-1.638;2023-04-03T08:29:34;8.60;99.90
19610;DHT22;9952;47.122;-1.638;2023-04-03T08:34:18;8.50;99.90
19610;DHT22;9952;47.122;-1.638;2023-04-03T08:38:59;8.70;99.90
19610;DHT22;9952;47.122;-1.638;2023-04-03T08:43:56;8.70;99.90
19610;DHT22;9952;47.122;-1.638;2023-04-03T08:48:41;8.90;99.90
19610;DHT22;9952;47.122;-1.638;2023-04-03T08:53:25;8.90;99.90
19610;DHT22;9952;47.122;-1.638;2023-04-03T08:58:20;9.10;99.90
19610;DHT22;9952;47.122;-1.638;2023-04-03T09:03:02;9.30;99.90
19610;DHT22;9952;47.122;-1.638;2023-04-03T09:07:47;9.40;99.90
19610;DHT22;9952;47.122;-1.638;2023-04-03T09:12:53;9.40;99.90
19610;DHT22;9952;47.122;-1.638;2023-04-03T09:18:00;9.40;99.90
19610;DHT22;9952;47.122;-1.638;2023-04-03T09:22:44;9.50;99.90
19610;DHT22;9952;47.122;-1.638;2023-04-03T09:27:24;9.50;99.90
19610;DHT22;9952;47.122;-1.638;2023-04-03T09:32:28;9.50;99.90
19610;DHT22;9952;47.122;-1.638;2023-04-03T09:37:33;9.60;99.90
19610;DHT22;9952;47.122;-1.638;2023-04-03T09:42:20;9.60;99.90
19610;DHT22;9952;47.122;-1.638;2023-04-03T09:47:22;9.50;99.90
19610;DHT22;9952;47.122;-1.638;2023-04-03T09:52:20;9.60;99.90
19610;DHT22;9952;47.122;-1.638;2023-04-03T09:57:12;9.50;99.90
19610;DHT22;9952;47.122;-1.638;2023-04-03T10:02:43;9.60;99.90
19610;DHT22;9952;47.122;-1.638;2023-04-03T10:06:59;9.70;99.90
19610;DHT22;9952;47.122;-1.638;2023-04-03T10:12:03;9.60;99.90
19610;DHT22;9952;47.122;-1.638;2023-04-03T10:17:09;9.60;99.90
19610;DHT22;9952;47.122;-1.638;2023-04-03T10:22:02;9.60;99.90
19610;DHT22;9952;47.122;-1.638;2023-04-03T10:46:00;9.50;99.90
19610;DHT22;9952;47.122;-1.638;2023-04-03T10:51:04;9.50;99.90
19610;DHT22;9952;47.122;-1.638;2023-04-03T11:00:53;9.60;99.90
19610;DHT22;9952;47.122;-1.638;2023-04-03T11:05:42;9.70;99.90
19610;DHT22;9952;47.122;-1.638;2023-04-03T11:10:43;9.70;99.90
19610;DHT22;9952;47.122;-1.638;2023-04-03T11:15:25;9.70;99.90
19610;DHT22;9952;47.122;-1.638;2023-04-03T11:20:26;9.70;99.90
19610;DHT22;9952;47.122;-1.638;2023-04-03T11:29:53;9.80;99.90
19610;DHT22;9952;47.122;-1.638;2023-04-03T11:34:41;9.80;99.90
19610;DHT22;9952;47.122;-1.638;2023-04-03T11:39:34;9.60;99.90
19610;DHT22;9952;47.122;-1.638;2023-04-03T11:44:37;9.60;99.90
19610;DHT22;9952;47.122;-1.638;2023-04-03T11:54:45;9.60;99.90
19610;DHT22;9952;47.122;-1.638;2023-04-03T11:59:37;9.60;99.90
19610;DHT22;9952;47.122;-1.638;2023-04-03T12:04:20;9.70;99.90
19610;DHT22;9952;47.122;-1.638;2023-04-03T12:09:02;9.80;99.90
19610;DHT22;9952;47.122;-1.638;2023-04-03T12:23:35;9.70;99.90
19610;DHT22;9952;47.122;-1.638;2023-04-03T12:28:16;9.70;99.90
19610;DHT22;9952;47.122;-1.638;2023-04-03T12:48:17;10.10;99.90
19610;DHT22;9952;47.122;-1.638;2023-04-03T12:57:54;10.40;99.90
19610;DHT22;9952;47.122;-1.638;2023-04-03T13:02:35;10.50;99.90
19610;DHT22;9952;47.122;-1.638;2023-04-03T13:12:13;10.50;99.90
19610;DHT22;9952;47.122;-1.638;2023-04-03T13:16:57;10.30;99.90
19610;DHT22;9952;47.122;-1.638;2023-04-03T13:21:38;10.20;99.90
19610;DHT22;9952;47.122;-1.638;2023-04-03T13:26:21;10.10;99.90
19610;DHT22;9952;47.122;-1.638;2023-04-03T13:31:04;10.20;99.90
19610;DHT22;9952;47.122;-1.638;2023-04-03T13:35:46;10.30;99.90
19610;DHT22;9952;47.122;-1.638;2023-04-03T13:40:27;10.20;99.90
19610;DHT22;9952;47.122;-1.638;2023-04-03T13:45:19;10.20;99.90
19610;DHT22;9952;47.122;-1.638;2023-04-03T13:50:20;10.20;99.90
19610;DHT22;9952;47.122;-1.638;2023-04-03T13:55:20;10.30;99.90
19610;DHT22;9952;47.122;-1.638;2023-04-03T14:00:47;10.30;99.90
19610;DHT22;9952;47.122;-1.638;2023-04-03T14:05:20;10.30;99.90
19610;DHT22;9952;47.122;-1.638;2023-04-03T14:10:01;10.30;99.90
19610;DHT22;9952;47.122;-1.638;2023-04-03T14:14:42;10.30;99.90
19610;DHT22;9952;47.122;-1.638;2023-04-03T14:19:42;10.50;99.90
19610;DHT22;9952;47.122;-1.638;2023-04-03T14:24:23;10.60;99.90
19610;DHT22;9952;47.122;-1.638;2023-04-03T14:29:04;10.70;99.90
19610;DHT22;9952;47.122;-1.638;2023-04-03T14:33:45;10.80;99.90
19610;DHT22;9952;47.122;-1.638;2023-04-03T14:38:29;10.70;99.90
19610;DHT22;9952;47.122;-1.638;2023-04-03T14:43:12;10.80;99.90
19610;DHT22;9952;47.122;-1.638;2023-04-03T14:47:54;10.80;99.90
19610;DHT22;9952;47.122;-1.638;2023-04-03T14:52:36;11.00;99.90
19610;DHT22;9952;47.122;-1.638;2023-04-03T14:57:17;11.40;99.90
19610;DHT22;9952;47.122;-1.638;2023-04-03T15:01:58;11.50;99.90
19610;DHT22;9952;47.122;-1.638;2023-04-03T15:06:39;11.60;99.90
19610;DHT22;9952;47.122;-1.638;2023-04-03T15:11:20;11.60;99.90
19610;DHT22;9952;47.122;-1.638;2023-04-03T15:16:01;11.40;99.90
19610;DHT22;9952;47.122;-1.638;2023-04-03T15:20:43;11.60;99.90
19610;DHT22;9952;47.122;-1.638;2023-04-03T15:25:26;11.90;99.90
19610;DHT22;9952;47.122;-1.638;2023-04-03T15:30:11;11.90;99.90
19610;DHT22;9952;47.122;-1.638;2023-04-03T15:34:54;11.90;99.90
19610;DHT22;9952;47.122;-1.638;2023-04-03T15:39:35;11.90;99.90
19610;DHT22;9952;47.122;-1.638;2023-04-03T15:44:16;11.80;99.90
19610;DHT22;9952;47.122;-1.638;2023-04-03T15:49:01;11.90;99.90
19610;DHT22;9952;47.122;-1.638;2023-04-03T15:53:41;11.80;99.90
19610;DHT22;9952;47.122;-1.638;2023-04-03T15:58:22;11.90;99.90
19610;DHT22;9952;47.122;-1.638;2023-04-03T16:03:11;11.70;99.90
19610;DHT22;9952;47.122;-1.638;2023-04-03T16:07:52;11.80;99.90
19610;DHT22;9952;47.122;-1.638;2023-04-03T16:12:34;12.00;99.90
19610;DHT22;9952;47.122;-1.638;2023-04-03T16:17:15;12.10;99.90
19610;DHT22;9952;47.122;-1.638;2023-04-03T16:21:57;12.10;99.90
19610;DHT22;9952;47.122;-1.638;2023-04-03T16:26:38;12.10;99.90
19610;DHT22;9952;47.122;-1.638;2023-04-03T16:31:19;12.00;99.90
19610;DHT22;9952;47.122;-1.638;2023-04-03T16:36:00;11.70;99.90
19610;DHT22;9952;47.122;-1.638;2023-04-03T16:40:41;11.90;99.90
19610;DHT22;9952;47.122;-1.638;2023-04-03T16:45:22;11.80;99.90
19610;DHT22;9952;47.122;-1.638;2023-04-03T16:50:03;11.90;99.90
19610;DHT22;9952;47.122;-1.638;2023-04-03T16:54:44;11.80;99.90
19610;DHT22;9952;47.122;-1.638;2023-04-03T16:59:25;11.80;99.90
19610;DHT22;9952;47.122;-1.638;2023-04-03T17:04:09;11.90;99.90
19610;DHT22;9952;47.122;-1.638;2023-04-03T17:08:51;11.60;99.90
19610;DHT22;9952;47.122;-1.638;2023-04-03T17:13:32;11.50;99.90
19610;DHT22;9952;47.122;-1.638;2023-04-03T17:18:14;11.40;99.90
19610;DHT22;9952;47.122;-1.638;2023-04-03T17:22:56;11.30;99.90
19610;DHT22;9952;47.122;-1.638;2023-04-03T17:27:38;11.20;99.90
19610;DHT22;9952;47.122;-1.638;2023-04-03T17:32:19;11.10;99.90
19610;DHT22;9952;47.122;-1.638;2023-04-03T17:37:00;11.20;99.90
19610;DHT22;9952;47.122;-1.638;2023-04-03T17:41:41;11.20;99.90
19610;DHT22;9952;47.122;-1.638;2023-04-03T17:46:23;11.20;99.90
19610;DHT22;9952;47.122;-1.638;2023-04-03T17:51:05;11.10;99.90
19610;DHT22;9952;47.122;-1.638;2023-04-03T17:55:46;11.10;99.90
19610;DHT22;9952;47.122;-1.638;2023-04-03T18:00:27;11.00;99.90
19610;DHT22;9952;47.122;-1.638;2023-04-03T18:05:08;11.00;99.90
19610;DHT22;9952;47.122;-1.638;2023-04-03T18:09:51;10.90;99.90
19610;DHT22;9952;47.122;-1.638;2023-04-03T18:14:33;11.00;99.90
19610;DHT22;9952;47.122;-1.638;2023-04-03T18:19:14;10.80;99.90
19610;DHT22;9952;47.122;-1.638;2023-04-03T18:23:55;10.70;99.90
19610;DHT22;9952;47.122;-1.638;2023-04-03T18:28:37;10.60;99.90
19610;DHT22;9952;47.122;-1.638;2023-04-03T18:33:19;10.40;99.90
19610;DHT22;9952;47.122;-1.638;2023-04-03T18:37:59;10.30;99.90
19610;DHT22;9952;47.122;-1.638;2023-04-03T18:42:41;10.20;99.90
19610;DHT22;9952;47.122;-1.638;2023-04-03T18:47:22;10.10;99.90
19610;DHT22;9952;47.122;-1.638;2023-04-03T18:52:03;9.90;99.90
19610;DHT22;9952;47.122;-1.638;2023-04-03T18:56:44;9.80;99.90
19610;DHT22;9952;47.122;-1.638;2023-04-03T19:01:25;9.70;99.90
19610;DHT22;9952;47.122;-1.638;2023-04-03T19:06:06;9.60;99.90
19610;DHT22;9952;47.122;-1.638;2023-04-03T19:10:46;9.50;99.90
19610;DHT22;9952;47.122;-1.638;2023-04-03T19:15:27;9.40;99.90
19610;DHT22;9952;47.122;-1.638;2023-04-03T19:20:09;9.20;99.90
19610;DHT22;9952;47.122;-1.638;2023-04-03T19:24:50;9.10;99.90
19610;DHT22;9952;47.122;-1.638;2023-04-03T19:29:31;8.90;99.90
19610;DHT22;9952;47.122;-1.638;2023-04-03T19:34:12;8.70;99.90
19610;DHT22;9952;47.122;-1.638;2023-04-03T19:38:53;8.60;99.90
19610;DHT22;9952;47.122;-1.638;2023-04-03T19:43:34;8.60;99.90
19610;DHT22;9952;47.122;-1.638;2023-04-03T19:48:15;8.50;99.90
19610;DHT22;9952;47.122;-1.638;2023-04-03T19:52:55;8.40;99.90
19610;DHT22;9952;47.122;-1.638;2023-04-03T19:57:36;8.30;99.90
19610;DHT22;9952;47.122;-1.638;2023-04-03T20:02:17;8.10;99.90
19610;DHT22;9952;47.122;-1.638;2023-04-03T20:06:58;8.00;99.90
19610;DHT22;9952;47.122;-1.638;2023-04-03T20:11:39;7.90;99.90
19610;DHT22;9952;47.122;-1.638;2023-04-03T20:16:21;7.70;99.90
19610;DHT22;9952;47.122;-1.638;2023-04-03T20:21:06;7.70;99.90
19610;DHT22;9952;47.122;-1.638;2023-04-03T20:25:48;7.60;99.90
19610;DHT22;9952;47.122;-1.638;2023-04-03T20:30:28;7.60;99.90
19610;DHT22;9952;47.122;-1.638;2023-04-03T20:35:09;7.50;99.90
19610;DHT22;9952;47.122;-1.638;2023-04-03T20:39:50;7.50;99.90
19610;DHT22;9952;47.122;-1.638;2023-04-03T20:44:31;7.60;99.90
19610;DHT22;9952;47.122;-1.638;2023-04-03T20:49:12;7.60;99.90
19610;DHT22;9952;47.122;-1.638;2023-04-03T20:53:53;7.80;99.90
19610;DHT22;9952;47.122;-1.638;2023-04-03T20:58:36;7.80;99.90
19610;DHT22;9952;47.122;-1.638;2023-04-03T21:03:18;7.70;99.90
19610;DHT22;9952;47.122;-1.638;2023-04-03T21:19:07;7.50;99.90
19610;DHT22;9952;47.122;-1.638;2023-04-03T21:23:49;7.50;99.90
19610;DHT22;9952;47.122;-1.638;2023-04-03T21:28:30;7.40;99.90
19610;DHT22;9952;47.122;-1.638;2023-04-03T21:33:12;7.40;99.90
19610;DHT22;9952;47.122;-1.638;2023-04-03T21:37:52;7.30;99.90
19610;DHT22;9952;47.122;-1.638;2023-04-03T21:42:33;7.30;99.90
19610;DHT22;9952;47.122;-1.638;2023-04-03T21:47:14;7.30;99.90
19610;DHT22;9952;47.122;-1.638;2023-04-03T21:51:55;7.30;99.90
19610;DHT22;9952;47.122;-1.638;2023-04-03T21:56:36;7.20;99.90
19610;DHT22;9952;47.122;-1.638;2023-04-03T22:01:19;7.10;99.90
19610;DHT22;9952;47.122;-1.638;2023-04-03T22:06:00;7.10;99.90
19610;DHT22;9952;47.122;-1.638;2023-04-03T22:10:41;7.10;99.90
19610;DHT22;9952;47.122;-1.638;2023-04-03T22:15:21;7.00;99.90
19610;DHT22;9952;47.122;-1.638;2023-04-03T22:20:02;6.90;99.90
19610;DHT22;9952;47.122;-1.638;2023-04-03T22:24:43;6.70;99.90
19610;DHT22;9952;47.122;-1.638;2023-04-03T22:29:25;6.60;99.90
19610;DHT22;9952;47.122;-1.638;2023-04-03T22:34:06;6.40;99.90
19610;DHT22;9952;47.122;-1.638;2023-04-03T22:38:47;6.30;99.90
19610;DHT22;9952;47.122;-1.638;2023-04-03T22:43:30;6.30;99.90
19610;DHT22;9952;47.122;-1.638;2023-04-03T22:48:11;6.10;99.90
19610;DHT22;9952;47.122;-1.638;2023-04-03T22:52:53;6.00;99.90
19610;DHT22;9952;47.122;-1.638;2023-04-03T22:57:33;6.00;99.90
19610;DHT22;9952;47.122;-1.638;2023-04-03T23:02:14;5.90;99.90
19610;DHT22;9952;47.122;-1.638;2023-04-03T23:06:55;5.80;99.90
19610;DHT22;9952;47.122;-1.638;2023-04-03T23:11:36;5.80;99.90
19610;DHT22;9952;47.122;-1.638;2023-04-03T23:16:16;5.70;99.90
19610;DHT22;9952;47.122;-1.638;2023-04-03T23:20:57;5.70;99.90
19610;DHT22;9952;47.122;-1.638;2023-04-03T23:25:38;5.50;99.90
19610;DHT22;9952;47.122;-1.638;2023-04-03T23:30:20;5.40;99.90
19610;DHT22;9952;47.122;-1.638;2023-04-03T23:35:01;5.40;99.90
19610;DHT22;9952;47.122;-1.638;2023-04-03T23:39:42;5.30;99.90
19610;DHT22;9952;47.122;-1.638;2023-04-03T23:44:23;5.20;99.90
19610;DHT22;9952;47.122;-1.638;2023-04-03T23:49:03;5.20;99.90
19610;DHT22;9952;47.122;-1.638;2023-04-03T23:53:44;5.20;99.90
19610;DHT22;9952;47.122;-1.638;2023-04-03T23:58:25;5.10;99.90
